sensor_id;sensor_type;location;lat;lon;timestamp;P1;durP1;ratioP1;P2;durP2;ratioP2
20997;SDS011;10657;51.276;6.390;2022-10-16T00:01:21;7.72;;;2.20;;
20997;SDS011;10657;51.276;6.390;2022-10-16T00:03:50;8.38;;;1.92;;
20997;SDS011;10657;51.276;6.390;2022-10-16T00:06:18;10.35;;;2.47;;
20997;SDS011;10657;51.276;6.390;2022-10-16T00:08:46;6.85;;;2.20;;
20997;SDS011;10657;51.276;6.390;2022-10-16T00:11:15;5.45;;;1.95;;
20997;SDS011;10657;51.276;6.390;2022-10-16T00:13:42;9.55;;;2.22;;
20997;SDS011;10657;51.276;6.390;2022-10-16T00:16:11;5.40;;;1.70;;
20997;SDS011;10657;51.276;6.390;2022-10-16T00:18:39;7.68;;;1.90;;
20997;SDS011;10657;51.276;6.390;2022-10-16T00:21:06;6.13;;;2.00;;
20997;SDS011;10657;51.276;6.390;2022-10-16T00:23:34;5.70;;;1.67;;
20997;SDS011;10657;51.276;6.390;2022-10-16T00:26:03;6.32;;;1.77;;
20997;SDS011;10657;51.276;6.390;2022-10-16T00:28:32;7.00;;;2.20;;
20997;SDS011;10657;51.276;6.390;2022-10-16T00:31:07;5.93;;;1.63;;
20997;SDS011;10657;51.276;6.390;2022-10-16T00:33:35;5.88;;;1.80;;
20997;SDS011;10657;51.276;6.390;2022-10-16T00:36:04;5.40;;;1.90;;
20997;SDS011;10657;51.276;6.390;2022-10-16T00:38:32;7.00;;;1.77;;
20997;SDS011;10657;51.276;6.390;2022-10-16T00:40:59;5.03;;;1.70;;
20997;SDS011;10657;51.276;6.390;2022-10-16T00:43:43;4.30;;;1.70;;
20997;SDS011;10657;51.276;6.390;2022-10-16T00:46:24;4.18;;;1.73;;
20997;SDS011;10657;51.276;6.390;2022-10-16T00:49:07;5.13;;;1.75;;
20997;SDS011;10657;51.276;6.390;2022-10-16T00:51:45;7.93;;;1.50;;
20997;SDS011;10657;51.276;6.390;2022-10-16T00:54:15;4.90;;;1.90;;
20997;SDS011;10657;51.276;6.390;2022-10-16T00:56:51;4.82;;;1.60;;
20997;SDS011;10657;51.276;6.390;2022-10-16T00:59:24;5.45;;;1.65;;
20997;SDS011;10657;51.276;6.390;2022-10-16T01:01:54;7.15;;;1.80;;
20997;SDS011;10657;51.276;6.390;2022-10-16T01:04:21;5.85;;;1.80;;
20997;SDS011;10657;51.276;6.390;2022-10-16T01:06:51;5.32;;;1.60;;
20997;SDS011;10657;51.276;6.390;2022-10-16T01:10:00;6.25;;;1.80;;
20997;SDS011;10657;51.276;6.390;2022-10-16T01:15:34;5.97;;;2.08;;
20997;SDS011;10657;51.276;6.390;2022-10-16T01:18:35;6.38;;;1.55;;
20997;SDS011;10657;51.276;6.390;2022-10-16T01:21:10;7.57;;;1.77;;
20997;SDS011;10657;51.276;6.390;2022-10-16T01:24:01;5.22;;;1.77;;
20997;SDS011;10657;51.276;6.390;2022-10-16T01:26:59;4.50;;;1.50;;
20997;SDS011;10657;51.276;6.390;2022-10-16T01:29:39;3.85;;;1.55;;
20997;SDS011;10657;51.276;6.390;2022-10-16T01:35:02;4.70;;;1.70;;
20997;SDS011;10657;51.276;6.390;2022-10-16T01:37:38;6.00;;;1.80;;
20997;SDS011;10657;51.276;6.390;2022-10-16T01:40:11;6.93;;;1.80;;
20997;SDS011;10657;51.276;6.390;2022-10-16T01:42:41;4.97;;;1.58;;
20997;SDS011;10657;51.276;6.390;2022-10-16T01:45:11;6.55;;;1.52;;
20997;SDS011;10657;51.276;6.390;2022-10-16T01:47:40;3.28;;;1.30;;
20997;SDS011;10657;51.276;6.390;2022-10-16T01:50:09;3.60;;;1.30;;
20997;SDS011;10657;51.276;6.390;2022-10-16T01:52:39;4.43;;;1.52;;
20997;SDS011;10657;51.276;6.390;2022-10-16T01:55:08;7.60;;;1.67;;
20997;SDS011;10657;51.276;6.390;2022-10-16T01:57:36;11.85;;;1.48;;
20997;SDS011;10657;51.276;6.390;2022-10-16T02:00:08;4.18;;;1.38;;
20997;SDS011;10657;51.276;6.390;2022-10-16T02:02:38;2.97;;;1.30;;
20997;SDS011;10657;51.276;6.390;2022-10-16T02:05:16;4.22;;;1.58;;
20997;SDS011;10657;51.276;6.390;2022-10-16T02:07:48;4.95;;;1.40;;
20997;SDS011;10657;51.276;6.390;2022-10-16T02:10:15;3.47;;;1.35;;
20997;SDS011;10657;51.276;6.390;2022-10-16T02:12:48;4.18;;;1.33;;
20997;SDS011;10657;51.276;6.390;2022-10-16T02:15:25;3.33;;;1.40;;
20997;SDS011;10657;51.276;6.390;2022-10-16T02:17:52;6.28;;;1.35;;
20997;SDS011;10657;51.276;6.390;2022-10-16T02:20:20;2.85;;;1.17;;
20997;SDS011;10657;51.276;6.390;2022-10-16T02:22:53;4.00;;;1.00;;
20997;SDS011;10657;51.276;6.390;2022-10-16T02:25:28;3.00;;;1.20;;
20997;SDS011;10657;51.276;6.390;2022-10-16T02:27:59;2.92;;;1.27;;
20997;SDS011;10657;51.276;6.390;2022-10-16T02:30:36;4.40;;;1.30;;
20997;SDS011;10657;51.276;6.390;2022-10-16T02:33:09;3.42;;;1.10;;
20997;SDS011;10657;51.276;6.390;2022-10-16T02:35:39;3.28;;;1.25;;
20997;SDS011;10657;51.276;6.390;2022-10-16T02:38:07;6.22;;;1.10;;
20997;SDS011;10657;51.276;6.390;2022-10-16T02:40:40;3.92;;;1.27;;
20997;SDS011;10657;51.276;6.390;2022-10-16T02:43:07;3.17;;;0.95;;
20997;SDS011;10657;51.276;6.390;2022-10-16T02:45:35;2.45;;;1.00;;
20997;SDS011;10657;51.276;6.390;2022-10-16T02:48:01;3.28;;;1.00;;
20997;SDS011;10657;51.276;6.390;2022-10-16T02:50:28;3.40;;;1.20;;
20997;SDS011;10657;51.276;6.390;2022-10-16T02:52:55;3.17;;;1.02;;
20997;SDS011;10657;51.276;6.390;2022-10-16T02:55:21;3.60;;;1.10;;
20997;SDS011;10657;51.276;6.390;2022-10-16T02:57:48;9.05;;;1.30;;
20997;SDS011;10657;51.276;6.390;2022-10-16T03:00:15;4.03;;;1.23;;
20997;SDS011;10657;51.276;6.390;2022-10-16T03:02:43;3.03;;;1.10;;
20997;SDS011;10657;51.276;6.390;2022-10-16T03:05:10;4.35;;;1.23;;
20997;SDS011;10657;51.276;6.390;2022-10-16T03:07:37;4.55;;;1.10;;
20997;SDS011;10657;51.276;6.390;2022-10-16T03:10:03;2.28;;;1.10;;
20997;SDS011;10657;51.276;6.390;2022-10-16T03:12:30;2.13;;;0.80;;
20997;SDS011;10657;51.276;6.390;2022-10-16T03:14:57;4.80;;;1.00;;
20997;SDS011;10657;51.276;6.390;2022-10-16T03:17:24;3.38;;;0.90;;
20997;SDS011;10657;51.276;6.390;2022-10-16T03:19:52;2.80;;;1.10;;
20997;SDS011;10657;51.276;6.390;2022-10-16T03:22:18;3.28;;;1.00;;
20997;SDS011;10657;51.276;6.390;2022-10-16T03:24:45;5.35;;;0.95;;
20997;SDS011;10657;51.276;6.390;2022-10-16T03:27:11;4.18;;;1.10;;
20997;SDS011;10657;51.276;6.390;2022-10-16T03:29:38;2.65;;;1.00;;
20997;SDS011;10657;51.276;6.390;2022-10-16T03:32:05;3.03;;;1.20;;
20997;SDS011;10657;51.276;6.390;2022-10-16T03:34:31;3.40;;;1.00;;
20997;SDS011;10657;51.276;6.390;2022-10-16T03:36:58;2.15;;;0.93;;
20997;SDS011;10657;51.276;6.390;2022-10-16T03:39:24;4.03;;;0.90;;
20997;SDS011;10657;51.276;6.390;2022-10-16T03:41:51;2.97;;;1.13;;
20997;SDS011;10657;51.276;6.390;2022-10-16T03:44:18;5.40;;;1.05;;
20997;SDS011;10657;51.276;6.390;2022-10-16T03:46:44;2.83;;;1.10;;
20997;SDS011;10657;51.276;6.390;2022-10-16T03:49:11;2.08;;;0.75;;
20997;SDS011;10657;51.276;6.390;2022-10-16T03:51:37;2.30;;;0.98;;
20997;SDS011;10657;51.276;6.390;2022-10-16T03:54:04;3.53;;;0.90;;
20997;SDS011;10657;51.276;6.390;2022-10-16T03:56:31;6.28;;;0.93;;
20997;SDS011;10657;51.276;6.390;2022-10-16T03:58:57;3.78;;;1.17;;
20997;SDS011;10657;51.276;6.390;2022-10-16T04:01:24;2.22;;;0.82;;
20997;SDS011;10657;51.276;6.390;2022-10-16T04:03:51;2.67;;;1.08;;
20997;SDS011;10657;51.276;6.390;2022-10-16T04:06:17;5.60;;;1.00;;
20997;SDS011;10657;51.276;6.390;2022-10-16T04:08:44;4.38;;;1.00;;
20997;SDS011;10657;51.276;6.390;2022-10-16T04:11:11;2.42;;;1.00;;
20997;SDS011;10657;51.276;6.390;2022-10-16T04:13:37;2.40;;;0.95;;
20997;SDS011;10657;51.276;6.390;2022-10-16T04:16:04;3.20;;;0.90;;
20997;SDS011;10657;51.276;6.390;2022-10-16T04:18:31;4.65;;;1.10;;
20997;SDS011;10657;51.276;6.390;2022-10-16T04:21:02;2.63;;;0.95;;
20997;SDS011;10657;51.276;6.390;2022-10-16T04:23:29;3.88;;;0.90;;
20997;SDS011;10657;51.276;6.390;2022-10-16T04:25:56;3.50;;;1.08;;
20997;SDS011;10657;51.276;6.390;2022-10-16T04:28:23;2.20;;;0.82;;
20997;SDS011;10657;51.276;6.390;2022-10-16T04:30:50;5.45;;;1.17;;
20997;SDS011;10657;51.276;6.390;2022-10-16T04:33:16;2.67;;;1.10;;
20997;SDS011;10657;51.276;6.390;2022-10-16T04:35:43;3.42;;;1.10;;
20997;SDS011;10657;51.276;6.390;2022-10-16T04:38:10;3.10;;;1.00;;
20997;SDS011;10657;51.276;6.390;2022-10-16T04:40:36;7.38;;;0.85;;
20997;SDS011;10657;51.276;6.390;2022-10-16T04:43:03;7.43;;;1.10;;
20997;SDS011;10657;51.276;6.390;2022-10-16T04:45:31;1.83;;;0.90;;
20997;SDS011;10657;51.276;6.390;2022-10-16T04:47:58;2.85;;;0.98;;
20997;SDS011;10657;51.276;6.390;2022-10-16T04:50:25;3.53;;;1.27;;
20997;SDS011;10657;51.276;6.390;2022-10-16T04:52:52;3.10;;;1.10;;
20997;SDS011;10657;51.276;6.390;2022-10-16T04:55:19;5.30;;;0.98;;
20997;SDS011;10657;51.276;6.390;2022-10-16T04:57:45;2.60;;;1.05;;
20997;SDS011;10657;51.276;6.390;2022-10-16T05:00:12;4.20;;;1.00;;
20997;SDS011;10657;51.276;6.390;2022-10-16T05:02:39;3.47;;;1.20;;
20997;SDS011;10657;51.276;6.390;2022-10-16T05:05:05;2.63;;;1.08;;
20997;SDS011;10657;51.276;6.390;2022-10-16T05:07:32;5.43;;;1.00;;
20997;SDS011;10657;51.276;6.390;2022-10-16T05:09:59;5.45;;;1.00;;
20997;SDS011;10657;51.276;6.390;2022-10-16T05:12:26;2.70;;;0.95;;
20997;SDS011;10657;51.276;6.390;2022-10-16T05:14:52;3.53;;;1.10;;
20997;SDS011;10657;51.276;6.390;2022-10-16T05:17:24;4.68;;;1.10;;
20997;SDS011;10657;51.276;6.390;2022-10-16T05:19:52;3.45;;;1.00;;
20997;SDS011;10657;51.276;6.390;2022-10-16T05:22:19;3.15;;;1.10;;
20997;SDS011;10657;51.276;6.390;2022-10-16T05:24:45;4.82;;;0.95;;
20997;SDS011;10657;51.276;6.390;2022-10-16T05:27:12;7.32;;;1.38;;
20997;SDS011;10657;51.276;6.390;2022-10-16T05:29:45;3.25;;;1.10;;
20997;SDS011;10657;51.276;6.390;2022-10-16T05:32:13;6.15;;;1.17;;
20997;SDS011;10657;51.276;6.390;2022-10-16T05:34:41;5.07;;;1.17;;
20997;SDS011;10657;51.276;6.390;2022-10-16T05:37:07;2.08;;;1.08;;
20997;SDS011;10657;51.276;6.390;2022-10-16T05:39:34;6.78;;;1.20;;
20997;SDS011;10657;51.276;6.390;2022-10-16T05:42:03;3.47;;;1.40;;
20997;SDS011;10657;51.276;6.390;2022-10-16T05:44:30;3.13;;;1.10;;
20997;SDS011;10657;51.276;6.390;2022-10-16T05:46:57;6.40;;;2.15;;
20997;SDS011;10657;51.276;6.390;2022-10-16T05:49:23;3.15;;;1.20;;
20997;SDS011;10657;51.276;6.390;2022-10-16T05:51:50;4.40;;;1.20;;
20997;SDS011;10657;51.276;6.390;2022-10-16T05:54:17;3.53;;;1.33;;
20997;SDS011;10657;51.276;6.390;2022-10-16T05:56:43;2.75;;;1.20;;
20997;SDS011;10657;51.276;6.390;2022-10-16T05:59:10;3.58;;;1.40;;
20997;SDS011;10657;51.276;6.390;2022-10-16T06:01:36;3.58;;;1.40;;
20997;SDS011;10657;51.276;6.390;2022-10-16T06:04:03;3.22;;;1.30;;
20997;SDS011;10657;51.276;6.390;2022-10-16T06:06:30;6.07;;;1.80;;
20997;SDS011;10657;51.276;6.390;2022-10-16T06:08:57;5.07;;;1.50;;
20997;SDS011;10657;51.276;6.390;2022-10-16T06:11:24;4.07;;;1.40;;
20997;SDS011;10657;51.276;6.390;2022-10-16T06:13:53;6.07;;;1.60;;
20997;SDS011;10657;51.276;6.390;2022-10-16T06:16:26;3.63;;;1.33;;
20997;SDS011;10657;51.276;6.390;2022-10-16T06:18:53;6.28;;;1.50;;
20997;SDS011;10657;51.276;6.390;2022-10-16T06:21:23;6.35;;;1.75;;
20997;SDS011;10657;51.276;6.390;2022-10-16T06:23:51;4.65;;;1.60;;
20997;SDS011;10657;51.276;6.390;2022-10-16T06:26:19;5.05;;;1.50;;
20997;SDS011;10657;51.276;6.390;2022-10-16T06:28:48;5.43;;;1.60;;
20997;SDS011;10657;51.276;6.390;2022-10-16T06:31:16;7.72;;;1.60;;
20997;SDS011;10657;51.276;6.390;2022-10-16T06:33:43;3.25;;;1.40;;
20997;SDS011;10657;51.276;6.390;2022-10-16T06:36:12;4.82;;;1.73;;
20997;SDS011;10657;51.276;6.390;2022-10-16T06:38:40;6.82;;;1.60;;
20997;SDS011;10657;51.276;6.390;2022-10-16T06:41:07;6.50;;;1.90;;
20997;SDS011;10657;51.276;6.390;2022-10-16T06:43:40;5.93;;;1.75;;
20997;SDS011;10657;51.276;6.390;2022-10-16T06:46:08;4.40;;;1.58;;
20997;SDS011;10657;51.276;6.390;2022-10-16T06:48:36;5.13;;;1.80;;
20997;SDS011;10657;51.276;6.390;2022-10-16T06:53:46;7.85;;;1.80;;
20997;SDS011;10657;51.276;6.390;2022-10-16T06:56:33;7.93;;;1.92;;
20997;SDS011;10657;51.276;6.390;2022-10-16T06:59:00;5.22;;;1.73;;
20997;SDS011;10657;51.276;6.390;2022-10-16T07:01:27;7.55;;;1.83;;
20997;SDS011;10657;51.276;6.390;2022-10-16T07:03:54;3.40;;;1.52;;
20997;SDS011;10657;51.276;6.390;2022-10-16T07:06:22;5.20;;;1.70;;
20997;SDS011;10657;51.276;6.390;2022-10-16T07:08:49;5.95;;;1.88;;
20997;SDS011;10657;51.276;6.390;2022-10-16T07:11:17;4.85;;;1.73;;
20997;SDS011;10657;51.276;6.390;2022-10-16T07:13:46;4.72;;;1.65;;
20997;SDS011;10657;51.276;6.390;2022-10-16T07:16:21;5.07;;;1.85;;
20997;SDS011;10657;51.276;6.390;2022-10-16T07:18:55;4.65;;;1.60;;
20997;SDS011;10657;51.276;6.390;2022-10-16T07:21:27;3.20;;;1.40;;
20997;SDS011;10657;51.276;6.390;2022-10-16T07:23:56;4.90;;;1.80;;
20997;SDS011;10657;51.276;6.390;2022-10-16T07:26:25;4.22;;;1.70;;
20997;SDS011;10657;51.276;6.390;2022-10-16T07:28:52;3.47;;;1.40;;
20997;SDS011;10657;51.276;6.390;2022-10-16T07:31:19;5.85;;;1.70;;
20997;SDS011;10657;51.276;6.390;2022-10-16T07:33:47;5.60;;;1.48;;
20997;SDS011;10657;51.276;6.390;2022-10-16T07:36:15;4.68;;;1.63;;
20997;SDS011;10657;51.276;6.390;2022-10-16T07:38:42;6.43;;;1.67;;
20997;SDS011;10657;51.276;6.390;2022-10-16T07:41:10;4.00;;;1.52;;
20997;SDS011;10657;51.276;6.390;2022-10-16T07:43:44;6.82;;;1.67;;
20997;SDS011;10657;51.276;6.390;2022-10-16T07:46:15;3.67;;;1.60;;
20997;SDS011;10657;51.276;6.390;2022-10-16T07:48:43;9.00;;;1.80;;
20997;SDS011;10657;51.276;6.390;2022-10-16T07:51:13;4.97;;;1.77;;
20997;SDS011;10657;51.276;6.390;2022-10-16T07:53:43;5.10;;;1.83;;
20997;SDS011;10657;51.276;6.390;2022-10-16T07:56:10;4.20;;;1.58;;
20997;SDS011;10657;51.276;6.390;2022-10-16T07:58:37;3.65;;;1.58;;
20997;SDS011;10657;51.276;6.390;2022-10-16T08:01:05;4.32;;;1.40;;
20997;SDS011;10657;51.276;6.390;2022-10-16T08:03:33;4.95;;;1.60;;
20997;SDS011;10657;51.276;6.390;2022-10-16T08:06:00;3.95;;;1.40;;
20997;SDS011;10657;51.276;6.390;2022-10-16T08:08:28;8.20;;;1.52;;
20997;SDS011;10657;51.276;6.390;2022-10-16T08:10:55;2.65;;;1.20;;
20997;SDS011;10657;51.276;6.390;2022-10-16T08:13:22;4.20;;;1.10;;
20997;SDS011;10657;51.276;6.390;2022-10-16T08:15:49;4.57;;;1.75;;
20997;SDS011;10657;51.276;6.390;2022-10-16T08:18:15;5.05;;;1.40;;
20997;SDS011;10657;51.276;6.390;2022-10-16T08:20:42;8.73;;;1.58;;
20997;SDS011;10657;51.276;6.390;2022-10-16T08:23:10;5.10;;;1.30;;
20997;SDS011;10657;51.276;6.390;2022-10-16T08:25:38;5.00;;;1.65;;
20997;SDS011;10657;51.276;6.390;2022-10-16T08:28:05;2.97;;;1.35;;
20997;SDS011;10657;51.276;6.390;2022-10-16T08:30:32;6.70;;;2.22;;
20997;SDS011;10657;51.276;6.390;2022-10-16T08:33:00;6.20;;;1.70;;
20997;SDS011;10657;51.276;6.390;2022-10-16T08:35:27;6.47;;;1.30;;
20997;SDS011;10657;51.276;6.390;2022-10-16T08:37:54;6.05;;;1.52;;
20997;SDS011;10657;51.276;6.390;2022-10-16T08:40:31;9.05;;;1.83;;
20997;SDS011;10657;51.276;6.390;2022-10-16T08:48:45;4.95;;;1.30;;
20997;SDS011;10657;51.276;6.390;2022-10-16T08:51:20;6.32;;;1.40;;
20997;SDS011;10657;51.276;6.390;2022-10-16T08:57:19;4.07;;;1.50;;
20997;SDS011;10657;51.276;6.390;2022-10-16T08:59:50;5.03;;;1.70;;
20997;SDS011;10657;51.276;6.390;2022-10-16T09:07:54;4.47;;;1.15;;
20997;SDS011;10657;51.276;6.390;2022-10-16T09:13:38;8.07;;;1.30;;
20997;SDS011;10657;51.276;6.390;2022-10-16T09:16:28;6.13;;;1.63;;
20997;SDS011;10657;51.276;6.390;2022-10-16T09:19:09;6.72;;;1.50;;
20997;SDS011;10657;51.276;6.390;2022-10-16T09:21:45;4.47;;;1.50;;
20997;SDS011;10657;51.276;6.390;2022-10-16T09:24:15;4.85;;;1.48;;
20997;SDS011;10657;51.276;6.390;2022-10-16T09:26:42;4.18;;;1.30;;
20997;SDS011;10657;51.276;6.390;2022-10-16T09:29:13;5.45;;;1.20;;
20997;SDS011;10657;51.276;6.390;2022-10-16T09:31:40;7.13;;;1.20;;
20997;SDS011;10657;51.276;6.390;2022-10-16T09:36:56;8.18;;;1.33;;
20997;SDS011;10657;51.276;6.390;2022-10-16T09:39:25;4.82;;;1.10;;
20997;SDS011;10657;51.276;6.390;2022-10-16T09:41:51;5.18;;;1.20;;
20997;SDS011;10657;51.276;6.390;2022-10-16T09:44:26;7.22;;;1.67;;
20997;SDS011;10657;51.276;6.390;2022-10-16T09:47:02;6.78;;;1.83;;
20997;SDS011;10657;51.276;6.390;2022-10-16T09:49:30;5.32;;;1.38;;
20997;SDS011;10657;51.276;6.390;2022-10-16T09:52:11;4.57;;;1.17;;
20997;SDS011;10657;51.276;6.390;2022-10-16T09:54:49;5.05;;;1.23;;
20997;SDS011;10657;51.276;6.390;2022-10-16T09:57:17;4.00;;;1.30;;
20997;SDS011;10657;51.276;6.390;2022-10-16T09:59:51;9.65;;;1.92;;
20997;SDS011;10657;51.276;6.390;2022-10-16T10:02:31;5.03;;;1.20;;
20997;SDS011;10657;51.276;6.390;2022-10-16T10:05:02;9.63;;;1.77;;
20997;SDS011;10657;51.276;6.390;2022-10-16T10:07:35;6.03;;;1.20;;
20997;SDS011;10657;51.276;6.390;2022-10-16T10:10:22;5.85;;;0.98;;
20997;SDS011;10657;51.276;6.390;2022-10-16T10:12:50;4.20;;;1.10;;
20997;SDS011;10657;51.276;6.390;2022-10-16T10:15:17;5.65;;;1.60;;
20997;SDS011;10657;51.276;6.390;2022-10-16T10:17:51;6.45;;;1.40;;
20997;SDS011;10657;51.276;6.390;2022-10-16T10:23:23;6.78;;;1.30;;
20997;SDS011;10657;51.276;6.390;2022-10-16T10:36:43;6.10;;;1.30;;
20997;SDS011;10657;51.276;6.390;2022-10-16T10:50:14;3.95;;;1.17;;
20997;SDS011;10657;51.276;6.390;2022-10-16T10:55:59;5.20;;;1.00;;
20997;SDS011;10657;51.276;6.390;2022-10-16T10:59:02;5.53;;;1.30;;
20997;SDS011;10657;51.276;6.390;2022-10-16T11:01:54;6.00;;;1.35;;
20997;SDS011;10657;51.276;6.390;2022-10-16T11:04:34;5.57;;;1.08;;
20997;SDS011;10657;51.276;6.390;2022-10-16T11:07:18;4.20;;;0.93;;
20997;SDS011;10657;51.276;6.390;2022-10-16T11:10:02;4.28;;;1.20;;
20997;SDS011;10657;51.276;6.390;2022-10-16T11:12:35;4.93;;;1.10;;
20997;SDS011;10657;51.276;6.390;2022-10-16T11:20:33;4.13;;;1.20;;
20997;SDS011;10657;51.276;6.390;2022-10-16T11:23:09;8.07;;;1.40;;
20997;SDS011;10657;51.276;6.390;2022-10-16T11:25:46;6.20;;;1.20;;
20997;SDS011;10657;51.276;6.390;2022-10-16T11:28:23;3.92;;;0.80;;
20997;SDS011;10657;51.276;6.390;2022-10-16T11:30:57;7.85;;;1.50;;
20997;SDS011;10657;51.276;6.390;2022-10-16T11:33:37;4.57;;;1.45;;
20997;SDS011;10657;51.276;6.390;2022-10-16T11:38:51;5.43;;;1.15;;
20997;SDS011;10657;51.276;6.390;2022-10-16T11:41:45;6.57;;;1.10;;
20997;SDS011;10657;51.276;6.390;2022-10-16T11:44:41;6.03;;;1.30;;
20997;SDS011;10657;51.276;6.390;2022-10-16T11:47:30;8.10;;;2.10;;
20997;SDS011;10657;51.276;6.390;2022-10-16T11:50:23;4.75;;;1.05;;
20997;SDS011;10657;51.276;6.390;2022-10-16T11:55:54;5.80;;;1.40;;
20997;SDS011;10657;51.276;6.390;2022-10-16T11:58:25;4.93;;;1.00;;
20997;SDS011;10657;51.276;6.390;2022-10-16T12:03:44;7.95;;;1.35;;
20997;SDS011;10657;51.276;6.390;2022-10-16T12:06:27;6.38;;;1.13;;
20997;SDS011;10657;51.276;6.390;2022-10-16T12:09:03;6.32;;;0.93;;
20997;SDS011;10657;51.276;6.390;2022-10-16T12:11:37;4.97;;;1.13;;
20997;SDS011;10657;51.276;6.390;2022-10-16T12:14:06;4.93;;;1.10;;
20997;SDS011;10657;51.276;6.390;2022-10-16T12:16:33;5.82;;;1.42;;
20997;SDS011;10657;51.276;6.390;2022-10-16T12:19:15;6.20;;;0.95;;
20997;SDS011;10657;51.276;6.390;2022-10-16T12:21:43;6.68;;;1.40;;
20997;SDS011;10657;51.276;6.390;2022-10-16T12:24:34;3.00;;;0.80;;
20997;SDS011;10657;51.276;6.390;2022-10-16T12:27:17;3.38;;;0.85;;
20997;SDS011;10657;51.276;6.390;2022-10-16T12:29:57;4.63;;;1.13;;
20997;SDS011;10657;51.276;6.390;2022-10-16T12:35:17;5.30;;;0.65;;
20997;SDS011;10657;51.276;6.390;2022-10-16T12:37:49;3.35;;;1.00;;
20997;SDS011;10657;51.276;6.390;2022-10-16T12:40:25;3.95;;;0.95;;
20997;SDS011;10657;51.276;6.390;2022-10-16T12:42:55;3.88;;;1.02;;
20997;SDS011;10657;51.276;6.390;2022-10-16T12:45:29;5.90;;;1.10;;
20997;SDS011;10657;51.276;6.390;2022-10-16T12:47:59;3.90;;;0.95;;
20997;SDS011;10657;51.276;6.390;2022-10-16T12:50:28;5.50;;;1.08;;
20997;SDS011;10657;51.276;6.390;2022-10-16T12:52:57;3.60;;;1.10;;
20997;SDS011;10657;51.276;6.390;2022-10-16T12:55:24;4.57;;;1.00;;
20997;SDS011;10657;51.276;6.390;2022-10-16T12:58:06;4.95;;;1.10;;
20997;SDS011;10657;51.276;6.390;2022-10-16T13:00:44;3.08;;;0.90;;
20997;SDS011;10657;51.276;6.390;2022-10-16T13:08:56;3.70;;;0.93;;
20997;SDS011;10657;51.276;6.390;2022-10-16T13:14:36;8.52;;;1.02;;
20997;SDS011;10657;51.276;6.390;2022-10-16T13:17:49;4.03;;;1.10;;
20997;SDS011;10657;51.276;6.390;2022-10-16T13:26:22;4.30;;;1.17;;
20997;SDS011;10657;51.276;6.390;2022-10-16T13:28:53;7.18;;;2.08;;
20997;SDS011;10657;51.276;6.390;2022-10-16T13:31:25;3.80;;;1.10;;
20997;SDS011;10657;51.276;6.390;2022-10-16T13:33:59;4.68;;;0.90;;
20997;SDS011;10657;51.276;6.390;2022-10-16T13:36:33;3.92;;;1.00;;
20997;SDS011;10657;51.276;6.390;2022-10-16T13:41:36;2.80;;;0.70;;
20997;SDS011;10657;51.276;6.390;2022-10-16T13:44:03;3.58;;;0.73;;
20997;SDS011;10657;51.276;6.390;2022-10-16T13:46:31;4.95;;;0.70;;
20997;SDS011;10657;51.276;6.390;2022-10-16T13:49:04;4.70;;;0.70;;
20997;SDS011;10657;51.276;6.390;2022-10-16T13:51:38;5.25;;;0.90;;
20997;SDS011;10657;51.276;6.390;2022-10-16T13:54:04;4.30;;;1.00;;
20997;SDS011;10657;51.276;6.390;2022-10-16T13:56:32;4.60;;;0.70;;
20997;SDS011;10657;51.276;6.390;2022-10-16T13:59:03;3.60;;;0.80;;
20997;SDS011;10657;51.276;6.390;2022-10-16T14:01:35;4.55;;;0.90;;
20997;SDS011;10657;51.276;6.390;2022-10-16T14:04:10;3.75;;;0.75;;
20997;SDS011;10657;51.276;6.390;2022-10-16T14:06:43;4.00;;;0.70;;
20997;SDS011;10657;51.276;6.390;2022-10-16T14:09:25;3.90;;;0.80;;
20997;SDS011;10657;51.276;6.390;2022-10-16T14:12:09;5.50;;;0.68;;
20997;SDS011;10657;51.276;6.390;2022-10-16T14:14:42;7.85;;;0.88;;
20997;SDS011;10657;51.276;6.390;2022-10-16T14:17:18;3.38;;;0.80;;
20997;SDS011;10657;51.276;6.390;2022-10-16T14:19:51;10.27;;;2.67;;
20997;SDS011;10657;51.276;6.390;2022-10-16T14:22:30;7.07;;;1.58;;
20997;SDS011;10657;51.276;6.390;2022-10-16T14:24:58;2.95;;;0.90;;
20997;SDS011;10657;51.276;6.390;2022-10-16T14:27:34;5.75;;;1.08;;
20997;SDS011;10657;51.276;6.390;2022-10-16T14:30:12;3.72;;;1.00;;
20997;SDS011;10657;51.276;6.390;2022-10-16T14:33:02;2.50;;;0.80;;
20997;SDS011;10657;51.276;6.390;2022-10-16T14:35:45;3.88;;;0.80;;
20997;SDS011;10657;51.276;6.390;2022-10-16T14:38:18;6.82;;;0.90;;
20997;SDS011;10657;51.276;6.390;2022-10-16T14:40:46;4.40;;;0.82;;
20997;SDS011;10657;51.276;6.390;2022-10-16T14:43:16;4.15;;;0.80;;
20997;SDS011;10657;51.276;6.390;2022-10-16T14:45:55;3.42;;;0.90;;
20997;SDS011;10657;51.276;6.390;2022-10-16T14:48:22;5.18;;;0.80;;
20997;SDS011;10657;51.276;6.390;2022-10-16T14:50:50;3.97;;;0.90;;
20997;SDS011;10657;51.276;6.390;2022-10-16T14:53:17;4.32;;;0.77;;
20997;SDS011;10657;51.276;6.390;2022-10-16T14:55:43;3.33;;;0.85;;
20997;SDS011;10657;51.276;6.390;2022-10-16T14:58:17;3.45;;;0.98;;
20997;SDS011;10657;51.276;6.390;2022-10-16T15:00:47;3.47;;;0.90;;
20997;SDS011;10657;51.276;6.390;2022-10-16T15:03:14;2.67;;;0.77;;
20997;SDS011;10657;51.276;6.390;2022-10-16T15:05:41;3.95;;;0.80;;
20997;SDS011;10657;51.276;6.390;2022-10-16T15:08:08;4.18;;;0.80;;
20997;SDS011;10657;51.276;6.390;2022-10-16T15:10:37;5.22;;;1.00;;
20997;SDS011;10657;51.276;6.390;2022-10-16T15:13:06;1.55;;;0.68;;
20997;SDS011;10657;51.276;6.390;2022-10-16T15:18:03;6.18;;;1.10;;
20997;SDS011;10657;51.276;6.390;2022-10-16T15:20:31;8.77;;;1.50;;
20997;SDS011;10657;51.276;6.390;2022-10-16T15:23:04;5.78;;;1.40;;
20997;SDS011;10657;51.276;6.390;2022-10-16T15:25:37;4.35;;;1.30;;
20997;SDS011;10657;51.276;6.390;2022-10-16T15:28:10;6.38;;;1.80;;
20997;SDS011;10657;51.276;6.390;2022-10-16T15:30:38;4.78;;;1.92;;
20997;SDS011;10657;51.276;6.390;2022-10-16T15:33:08;4.68;;;1.90;;
20997;SDS011;10657;51.276;6.390;2022-10-16T15:35:39;3.67;;;1.60;;
20997;SDS011;10657;51.276;6.390;2022-10-16T15:38:06;4.20;;;1.40;;
20997;SDS011;10657;51.276;6.390;2022-10-16T15:40:35;3.30;;;0.80;;
20997;SDS011;10657;51.276;6.390;2022-10-16T15:43:01;5.97;;;2.33;;
20997;SDS011;10657;51.276;6.390;2022-10-16T15:45:28;6.43;;;2.33;;
20997;SDS011;10657;51.276;6.390;2022-10-16T15:47:54;3.55;;;1.13;;
20997;SDS011;10657;51.276;6.390;2022-10-16T15:50:21;4.32;;;1.27;;
20997;SDS011;10657;51.276;6.390;2022-10-16T15:52:48;3.50;;;1.08;;
20997;SDS011;10657;51.276;6.390;2022-10-16T15:55:16;4.57;;;1.13;;
20997;SDS011;10657;51.276;6.390;2022-10-16T15:57:44;3.40;;;1.13;;
20997;SDS011;10657;51.276;6.390;2022-10-16T16:00:13;3.53;;;1.05;;
20997;SDS011;10657;51.276;6.390;2022-10-16T16:02:42;4.05;;;1.15;;
20997;SDS011;10657;51.276;6.390;2022-10-16T16:05:10;5.55;;;1.20;;
20997;SDS011;10657;51.276;6.390;2022-10-16T16:07:37;5.45;;;1.48;;
20997;SDS011;10657;51.276;6.390;2022-10-16T16:10:06;9.98;;;1.35;;
20997;SDS011;10657;51.276;6.390;2022-10-16T16:12:36;5.32;;;1.42;;
20997;SDS011;10657;51.276;6.390;2022-10-16T16:15:06;4.70;;;1.30;;
20997;SDS011;10657;51.276;6.390;2022-10-16T16:17:35;3.13;;;1.17;;
20997;SDS011;10657;51.276;6.390;2022-10-16T16:20:02;6.95;;;2.15;;
20997;SDS011;10657;51.276;6.390;2022-10-16T16:22:30;9.68;;;5.35;;
20997;SDS011;10657;51.276;6.390;2022-10-16T16:24:57;9.45;;;5.60;;
20997;SDS011;10657;51.276;6.390;2022-10-16T16:27:23;11.00;;;4.75;;
20997;SDS011;10657;51.276;6.390;2022-10-16T16:29:51;10.90;;;5.53;;
20997;SDS011;10657;51.276;6.390;2022-10-16T16:32:19;9.65;;;3.75;;
20997;SDS011;10657;51.276;6.390;2022-10-16T16:34:45;8.43;;;3.45;;
20997;SDS011;10657;51.276;6.390;2022-10-16T16:37:12;9.85;;;3.42;;
20997;SDS011;10657;51.276;6.390;2022-10-16T16:39:39;10.02;;;3.28;;
20997;SDS011;10657;51.276;6.390;2022-10-16T16:42:05;9.65;;;3.00;;
20997;SDS011;10657;51.276;6.390;2022-10-16T16:44:33;6.72;;;2.28;;